createdAt,value
2022-09-23T00:01:46.594Z,68.13
2022-09-23T00:07:02.087Z,68.20
2022-09-23T00:13:41.308Z,68.15
2022-09-23T00:19:01.645Z,68.47
2022-09-23T00:24:12.032Z,68.35
2022-09-23T00:29:27.033Z,68.52
2022-09-23T00:34:48.191Z,68.50
2022-09-23T00:40:06.677Z,68.50
2022-09-23T00:45:27.478Z,68.57
2022-09-23T00:50:51.947Z,68.75
2022-09-23T00:56:25.520Z,68.67
2022-09-23T01:02:20.108Z,68.77
2022-09-23T01:07:48.916Z,68.84
2022-09-23T01:13:25.514Z,68.83
2022-09-23T01:19:02.560Z,68.79
2022-09-23T01:24:58.436Z,68.93
2022-09-23T01:30:59.447Z,69.24
2022-09-23T01:36:25.496Z,69.14
2022-09-23T01:41:54.110Z,69.23
2022-09-23T01:47:27.721Z,69.24
2022-09-23T01:52:55.308Z,69.46
2022-09-23T01:58:28.204Z,69.56
2022-09-23T02:04:01.937Z,69.68
2022-09-23T02:09:26.091Z,69.33
2022-09-23T02:14:57.146Z,69.42
2022-09-23T02:20:21.120Z,69.50
2022-09-23T02:25:43.679Z,69.65
2022-09-23T02:30:57.076Z,69.79
2022-09-23T02:36:24.029Z,70.02
2022-09-23T02:42:00.383Z,69.87
2022-09-23T02:47:20.767Z,69.78
2022-09-23T02:52:28.486Z,69.93
2022-09-23T02:58:21.865Z,69.94
2022-09-23T03:04:21.347Z,70.22
2022-09-23T03:09:57.865Z,70.04
2022-09-23T03:15:17.017Z,70.03
2022-09-23T03:20:51.299Z,70.00
2022-09-23T03:26:25.215Z,70.01
2022-09-23T03:31:46.173Z,69.99
2022-09-23T03:37:01.546Z,70.11
2022-09-23T03:42:33.176Z,70.00
2022-09-23T03:48:01.803Z,70.07
2022-09-23T03:53:14.014Z,70.13
2022-09-23T03:58:33.213Z,69.98
2022-09-23T04:03:41.618Z,70.06
2022-09-23T04:09:03.400Z,70.03
2022-09-23T04:14:29.549Z,70.46
2022-09-23T04:19:51.889Z,70.39
2022-09-23T04:25:20.227Z,70.37
2022-09-23T04:30:49.120Z,70.34
2022-09-23T04:36:08.642Z,70.31
2022-09-23T04:41:21.845Z,70.38
2022-09-23T04:46:29.250Z,70.64
2022-09-23T04:51:56.367Z,70.67
2022-09-23T04:57:04.149Z,70.67
2022-09-23T05:02:32.452Z,70.66
2022-09-23T05:07:40.500Z,70.72
2022-09-23T05:12:48.103Z,70.85
2022-09-23T05:18:02.676Z,70.95
2022-09-23T05:23:30.264Z,71.04
2022-09-23T05:28:58.594Z,71.10
2022-09-23T05:34:07.464Z,71.09
2022-09-23T05:39:17.488Z,71.63
2022-09-23T05:44:24.941Z,71.68
2022-09-23T05:49:59.151Z,72.15
2022-09-23T05:55:12.833Z,72.01
2022-09-23T06:00:42.860Z,71.57
2022-09-23T06:06:01.202Z,71.65
2022-09-23T06:11:10.525Z,71.45
2022-09-23T06:16:38.615Z,71.60
2022-09-23T06:22:01.098Z,71.39
2022-09-23T06:27:21.828Z,71.38
2022-09-23T06:32:52.319Z,71.18
2022-09-23T06:38:09.905Z,70.88
2022-09-23T06:43:36.399Z,70.75
2022-09-23T06:49:03.489Z,70.48
2022-09-23T06:54:18.319Z,70.38
2022-09-23T06:59:35.798Z,70.11
2022-09-23T07:04:51.488Z,69.94
2022-09-23T07:10:16.002Z,69.79
2022-09-23T07:15:28.612Z,69.40
2022-09-23T07:20:59.058Z,69.16
2022-09-23T07:26:21.607Z,68.90
2022-09-23T07:31:42.943Z,68.63
2022-09-23T07:37:11.015Z,68.31
2022-09-23T07:42:26.098Z,67.90
2022-09-23T07:47:36.120Z,67.45
2022-09-23T07:52:57.250Z,66.83
2022-09-23T07:58:26.523Z,66.03
2022-09-23T08:04:00.775Z,65.61
2022-09-23T08:09:31.988Z,64.92
2022-09-23T08:15:00.801Z,64.06
2022-09-23T08:20:35.874Z,62.94
2022-09-23T08:25:47.671Z,62.44
2022-09-23T08:30:58.210Z,61.92
2022-09-23T08:36:16.400Z,61.09
2022-09-23T08:41:45.512Z,60.20
2022-09-23T08:46:58.764Z,59.36
2022-09-23T08:52:27.585Z,58.57
2022-09-23T08:58:25.020Z,57.96
2022-09-23T09:03:38.532Z,57.20
2022-09-23T09:09:14.774Z,56.41
2022-09-23T09:14:50.144Z,55.83
2022-09-23T09:20:31.264Z,55.28
2022-09-23T09:25:55.734Z,54.60
2022-09-23T09:31:25.609Z,53.59
2022-09-23T09:36:40.119Z,53.60
2022-09-23T09:42:08.659Z,53.17
2022-09-23T09:47:38.733Z,52.62
2022-09-23T09:53:15.758Z,52.42
2022-09-23T09:59:08.342Z,52.02
2022-09-23T10:04:37.984Z,51.84
2022-09-23T10:09:58.313Z,51.58
2022-09-23T10:15:34.246Z,51.33
2022-09-23T10:20:41.530Z,51.08
2022-09-23T10:26:01.512Z,50.95
2022-09-23T10:31:16.273Z,50.55
2022-09-23T10:36:26.886Z,50.36
2022-09-23T10:42:06.171Z,50.31
2022-09-23T10:47:35.639Z,50.28
2022-09-23T10:53:19.873Z,50.22
2022-09-23T10:58:54.996Z,50.35
2022-09-23T11:04:25.293Z,50.25
2022-09-23T11:10:29.184Z,50.03
2022-09-23T11:16:15.613Z,50.01
2022-09-23T11:22:09.127Z,50.11
2022-09-23T11:27:30.965Z,49.95
2022-09-23T11:33:16.537Z,50.08
2022-09-23T11:38:28.306Z,49.92
2022-09-23T11:43:56.604Z,49.90
2022-09-23T11:49:30.065Z,49.92
2022-09-23T11:55:08.826Z,50.03
2022-09-23T12:00:36.438Z,50.13
2022-09-23T12:06:07.970Z,50.08
2022-09-23T12:11:42.704Z,49.92
2022-09-23T12:17:18.069Z,49.78
2022-09-23T12:22:58.140Z,49.76
2022-09-23T12:28:20.831Z,49.99
2022-09-23T12:33:54.969Z,49.88
2022-09-23T12:39:31.388Z,49.99
2022-09-23T12:44:52.111Z,49.96
2022-09-23T12:50:52.407Z,49.88
2022-09-23T12:56:24.088Z,50.14
2022-09-23T13:01:44.555Z,50.21
2022-09-23T13:07:07.560Z,49.83
2022-09-23T13:12:31.232Z,49.77
2022-09-23T13:17:41.123Z,49.99
2022-09-23T13:23:17.626Z,50.03
2022-09-23T13:28:33.838Z,50.31
2022-09-23T13:33:47.072Z,50.15
2022-09-23T13:38:54.288Z,50.16
2022-09-23T13:44:19.506Z,50.06
2022-09-23T13:49:41.210Z,49.94
2022-09-23T13:54:55.696Z,49.73
2022-09-23T14:00:23.440Z,49.50
2022-09-23T14:05:41.584Z,49.57
2022-09-23T14:10:59.738Z,49.61
2022-09-23T14:16:28.897Z,49.67
2022-09-23T14:21:37.640Z,49.56
2022-09-23T14:26:47.790Z,49.60
2022-09-23T14:31:58.423Z,49.74
2022-09-23T14:37:42.850Z,49.44
2022-09-23T14:43:17.897Z,49.38
2022-09-23T14:48:35.453Z,49.56
2022-09-23T14:53:45.942Z,49.60
2022-09-23T14:58:59.273Z,49.51
2022-09-23T15:04:35.653Z,49.54
2022-09-23T15:09:47.561Z,49.69
2022-09-23T15:14:59.612Z,49.53
2022-09-23T15:20:10.206Z,49.46
2022-09-23T15:25:43.731Z,49.67
2022-09-23T15:31:01.241Z,49.56
2022-09-23T15:36:21.172Z,49.72
2022-09-23T15:41:28.764Z,49.72
2022-09-23T15:46:40.288Z,49.93
2022-09-23T15:51:47.535Z,50.00
2022-09-23T15:56:55.541Z,50.28
2022-09-23T16:02:27.690Z,50.39
2022-09-23T16:08:19.845Z,50.96
2022-09-23T16:14:14.403Z,51.23
2022-09-23T16:19:34.434Z,51.43
2022-09-23T16:24:42.882Z,51.81
2022-09-23T16:30:13.437Z,51.91
2022-09-23T16:35:28.136Z,51.89
2022-09-23T16:40:35.407Z,52.19
2022-09-23T16:45:47.607Z,52.43
2022-09-23T16:51:20.593Z,52.67
2022-09-23T16:56:29.839Z,52.92
2022-09-23T17:01:55.028Z,53.10
2022-09-23T17:07:06.585Z,53.37
2022-09-23T17:12:20.063Z,53.63
2022-09-23T17:17:28.616Z,53.88
2022-09-23T17:22:36.513Z,54.04
2022-09-23T17:27:43.956Z,54.29
2022-09-23T17:32:51.177Z,54.60
2022-09-23T17:37:58.665Z,54.92
2022-09-23T17:43:06.077Z,55.20
2022-09-23T17:48:17.306Z,55.41
2022-09-23T17:53:25.088Z,55.39
2022-09-23T17:58:34.077Z,55.66
2022-09-23T18:03:43.585Z,55.78
2022-09-23T18:09:14.194Z,56.25
2022-09-23T18:14:49.557Z,56.32
2022-09-23T18:19:57.201Z,56.60
2022-09-23T18:25:22.673Z,56.62
2022-09-23T18:30:39.304Z,56.93
2022-09-23T18:35:52.728Z,57.09
2022-09-23T18:41:03.889Z,57.28
2022-09-23T18:46:17.768Z,57.22
2022-09-23T18:51:38.634Z,57.50
2022-09-23T18:56:53.166Z,57.61
2022-09-23T19:02:12.353Z,57.87
2022-09-23T19:07:23.666Z,58.12
2022-09-23T19:12:33.242Z,58.02
2022-09-23T19:17:41.739Z,58.40
2022-09-23T19:22:51.391Z,58.35
2022-09-23T19:28:08.561Z,58.64
2022-09-23T19:33:25.005Z,58.66
2022-09-23T19:38:36.542Z,59.00
2022-09-23T19:43:49.125Z,58.96
2022-09-23T19:49:03.193Z,59.21
2022-09-23T19:54:21.610Z,59.25
2022-09-23T19:59:32.767Z,59.41
2022-09-23T20:04:40.720Z,59.48
2022-09-23T20:09:51.228Z,59.54
2022-09-23T20:15:00.524Z,59.75
2022-09-23T20:20:22.009Z,60.02
2022-09-23T20:26:01.810Z,60.26
2022-09-23T20:31:35.912Z,60.10
2022-09-23T20:37:08.141Z,60.32
2022-09-23T20:42:20.285Z,60.44
2022-09-23T20:47:28.346Z,60.70
2022-09-23T20:52:39.319Z,60.89
2022-09-23T20:57:51.511Z,60.92
2022-09-23T21:03:00.110Z,61.19
2022-09-23T21:08:08.755Z,61.41
2022-09-23T21:13:41.923Z,61.40
2022-09-23T21:18:50.588Z,61.62
2022-09-23T21:24:23.850Z,61.83
2022-09-23T21:29:30.339Z,62.03
2022-09-23T21:34:40.494Z,62.09
2022-09-23T21:40:09.278Z,62.16
2022-09-23T21:45:17.306Z,62.25
2022-09-23T21:50:30.582Z,62.48
2022-09-23T21:55:40.544Z,62.45
2022-09-23T22:01:00.193Z,62.65
2022-09-23T22:06:21.871Z,62.62
2022-09-23T22:11:57.977Z,62.64
2022-09-23T22:17:26.470Z,62.74
2022-09-23T22:22:41.742Z,62.87
2022-09-23T22:28:03.213Z,62.98
2022-09-23T22:33:16.258Z,63.09
2022-09-23T22:38:37.504Z,63.21
2022-09-23T22:43:49.816Z,63.38
2022-09-23T22:48:59.595Z,63.27
2022-09-23T22:54:33.370Z,63.37
2022-09-23T22:59:48.447Z,63.44
2022-09-23T23:05:15.171Z,63.56
2022-09-23T23:10:40.120Z,63.95
2022-09-23T23:15:55.948Z,64.15
2022-09-23T23:21:19.004Z,64.16
2022-09-23T23:26:47.102Z,64.40
2022-09-23T23:31:56.113Z,64.58
2022-09-23T23:37:25.681Z,64.72
2022-09-23T23:42:47.376Z,64.78
2022-09-23T23:47:57.940Z,64.91
2022-09-23T23:53:27.216Z,64.88
2022-09-23T23:58:42.391Z,64.98
